Time;durP1;ratioP1;P1;durP2;ratioP2;P2;SDS_P1;SDS_P2;PMS_P1;PMS_P2;Temp;Humidity;BMP_temperature;BMP_pressure;BME280_temperature;BME280_humidity;BME280_pressure;Samples;Min_cycle;Max_cycle;Signal;HPM_P1;HPM_P2
2021/05/26 00:00:57;;;;;;;3.80;0.80;;;;;;;;;;4988738;28;20022;-59
2021/05/26 00:03:23;;;;;;;3.33;0.80;;;;;;;;;;4989952;28;20490;-59
2021/05/26 00:05:50;;;;;;;6.93;0.80;;;;;;;;;;4988947;28;20155;-59
2021/05/26 00:08:26;;;;;;;2.83;0.90;;;;;;;;;;4990265;28;20391;-59
2021/05/26 00:10:53;;;;;;;2.45;0.77;;;;;;;;;;4990033;28;20034;-60
2021/05/26 00:13:19;;;;;;;2.58;0.80;;;;;;;;;;4989884;28;20506;-59
2021/05/26 00:15:46;;;;;;;3.28;0.90;;;;;;;;;;4989796;28;20462;-59
2021/05/26 00:18:12;;;;;;;3.92;0.88;;;;;;;;;;4989779;28;20038;-60
2021/05/26 00:20:39;;;;;;;3.55;0.77;;;;;;;;;;4988482;28;20046;-59
2021/05/26 00:23:05;;;;;;;3.90;0.77;;;;;;;;;;4989980;28;20030;-63
2021/05/26 00:25:31;;;;;;;4.90;1.02;;;;;;;;;;4989592;28;20101;-61
2021/05/26 00:27:58;;;;;;;2.05;0.70;;;;;;;;;;4989536;28;20061;-60
2021/05/26 00:30:27;;;;;;;2.40;0.63;;;;;;;;;;4989523;28;20018;-61
2021/05/26 00:32:54;;;;;;;5.40;0.77;;;;;;;;;;4989724;28;20026;-60
2021/05/26 00:35:20;;;;;;;4.05;0.75;;;;;;;;;;4989485;28;20034;-61
2021/05/26 00:37:46;;;;;;;3.92;0.95;;;;;;;;;;4989474;28;20030;-61
2021/05/26 00:40:12;;;;;;;3.55;0.68;;;;;;;;;;4989263;28;20503;-61
2021/05/26 00:42:39;;;;;;;4.03;0.68;;;;;;;;;;4995730;28;20036;-61
2021/05/26 00:45:05;;;;;;;3.33;0.80;;;;;;;;;;5009295;28;20444;-61
2021/05/26 00:47:38;;;;;;;4.05;0.80;;;;;;;;;;5008935;28;20091;-61
2021/05/26 00:50:05;;;;;;;3.75;0.68;;;;;;;;;;5008880;28;20022;-60
2021/05/26 00:52:31;;;;;;;7.18;1.00;;;;;;;;;;5008766;28;20104;-61
2021/05/26 00:54:57;;;;;;;4.60;0.90;;;;;;;;;;5008678;28;20394;-61
2021/05/26 00:57:23;;;;;;;2.75;0.77;;;;;;;;;;5008626;28;20061;-61
2021/05/26 00:59:49;;;;;;;2.40;0.55;;;;;;;;;;5008706;28;20026;-62
2021/05/26 01:02:15;;;;;;;1.63;0.68;;;;;;;;;;5008755;28;20475;-61
2021/05/26 01:04:42;;;;;;;4.28;0.80;;;;;;;;;;5008819;28;20034;-61
2021/05/26 01:07:10;;;;;;;1.38;0.60;;;;;;;;;;5008462;28;20065;-61
2021/05/26 01:09:36;;;;;;;2.67;0.80;;;;;;;;;;4990198;28;20014;-61
2021/05/26 01:12:02;;;;;;;2.53;0.77;;;;;;;;;;4988887;28;20493;-61
2021/05/26 01:14:28;;;;;;;2.45;0.77;;;;;;;;;;4988955;28;20030;-61
2021/05/26 01:16:54;;;;;;;2.13;0.65;;;;;;;;;;4988908;28;20031;-61
2021/05/26 01:19:20;;;;;;;2.45;0.73;;;;;;;;;;4988954;28;20096;-61
2021/05/26 01:21:49;;;;;;;1.48;0.60;;;;;;;;;;4989032;28;20026;-61
2021/05/26 01:24:16;;;;;;;3.88;0.80;;;;;;;;;;4989034;28;20026;-61
2021/05/26 01:26:42;;;;;;;2.28;0.73;;;;;;;;;;4988653;28;20068;-61
2021/05/26 01:29:08;;;;;;;2.10;0.65;;;;;;;;;;4988642;28;20049;-61
2021/05/26 01:31:34;;;;;;;2.38;0.63;;;;;;;;;;4988705;28;20065;-61
2021/05/26 01:34:00;;;;;;;3.72;0.98;;;;;;;;;;4988828;28;20023;-61
2021/05/26 01:36:26;;;;;;;1.90;0.60;;;;;;;;;;4988843;28;20029;-61
2021/05/26 01:38:52;;;;;;;2.45;0.75;;;;;;;;;;4988646;28;20076;-60
2021/05/26 01:41:18;;;;;;;1.60;0.57;;;;;;;;;;4988664;28;20019;-61
2021/05/26 01:43:44;;;;;;;3.38;0.80;;;;;;;;;;5003544;28;20128;-61
2021/05/26 01:46:10;;;;;;;2.97;0.75;;;;;;;;;;5008147;28;20033;-61
2021/05/26 01:48:36;;;;;;;1.90;0.50;;;;;;;;;;5008039;28;20071;-61
2021/05/26 01:51:03;;;;;;;2.88;0.70;;;;;;;;;;5008097;28;20025;-61
2021/05/26 01:53:29;;;;;;;2.53;0.80;;;;;;;;;;5008109;28;20030;-60
2021/05/26 01:55:55;;;;;;;3.05;0.90;;;;;;;;;;5008023;28;20049;-61
2021/05/26 01:58:21;;;;;;;2.38;0.80;;;;;;;;;;5008426;28;20509;-61
2021/05/26 02:00:48;;;;;;;3.22;0.80;;;;;;;;;;5007901;28;20604;-61
2021/05/26 02:03:14;;;;;;;2.40;0.95;;;;;;;;;;5008073;28;20022;-61
2021/05/26 02:05:40;;;;;;;2.80;0.90;;;;;;;;;;5039398;28;20386;-61
2021/05/26 02:08:07;;;;;;;4.22;0.80;;;;;;;;;;5008051;28;20113;-61
2021/05/26 02:13:17;;;;;;;2.15;0.60;;;;;;;;;;5007902;28;20118;-61
2021/05/26 02:15:43;;;;;;;3.47;1.00;;;;;;;;;;5007654;28;20029;-61
2021/05/26 02:18:09;;;;;;;1.50;0.60;;;;;;;;;;5007961;28;20072;-61
2021/05/26 02:20:36;;;;;;;2.63;0.80;;;;;;;;;;5007883;28;20125;-61
2021/05/26 02:23:02;;;;;;;2.53;0.65;;;;;;;;;;5007790;28;20022;-61
2021/05/26 02:25:28;;;;;;;1.98;0.70;;;;;;;;;;5007676;28;20047;-60
2021/05/26 02:27:54;;;;;;;1.95;0.70;;;;;;;;;;5039243;28;20038;-61
2021/05/26 02:30:20;;;;;;;3.58;0.80;;;;;;;;;;5010210;28;20036;-60
2021/05/26 02:32:46;;;;;;;3.55;0.82;;;;;;;;;;5011146;28;20091;-60
2021/05/26 02:35:12;;;;;;;1.85;0.77;;;;;;;;;;5010988;28;20478;-61
2021/05/26 02:37:39;;;;;;;2.33;0.80;;;;;;;;;;5042718;28;20034;-61
2021/05/26 02:40:06;;;;;;;2.22;0.85;;;;;;;;;;5010860;28;20410;-60
2021/05/26 02:42:32;;;;;;;2.40;1.00;;;;;;;;;;5005234;28;20023;-59
2021/05/26 02:44:58;;;;;;;3.85;0.75;;;;;;;;;;4991210;28;20031;-60
2021/05/26 02:47:24;;;;;;;2.65;0.82;;;;;;;;;;4991095;28;20113;-60
2021/05/26 02:49:50;;;;;;;3.10;0.80;;;;;;;;;;4991076;28;20026;-60
2021/05/26 02:52:16;;;;;;;3.05;0.80;;;;;;;;;;4991149;28;20104;-60
2021/05/26 02:54:42;;;;;;;3.05;1.00;;;;;;;;;;4991024;28;20023;-61
2021/05/26 02:57:08;;;;;;;2.28;0.85;;;;;;;;;;4991356;28;20033;-60
2021/05/26 02:59:34;;;;;;;3.70;0.90;;;;;;;;;;4990903;28;20019;-60
2021/05/26 03:02:00;;;;;;;4.68;1.00;;;;;;;;;;4990983;28;20027;-60
2021/05/26 03:04:26;;;;;;;3.83;0.80;;;;;;;;;;4990970;28;20037;-61
2021/05/26 03:06:52;;;;;;;3.78;0.90;;;;;;;;;;4990912;28;20045;-60
2021/05/26 03:09:18;;;;;;;6.75;1.00;;;;;;;;;;4989508;28;20027;-60
2021/05/26 03:11:44;;;;;;;2.85;0.88;;;;;;;;;;4990746;28;20144;-60
2021/05/26 03:14:10;;;;;;;2.33;0.77;;;;;;;;;;4990778;28;20038;-61
2021/05/26 03:16:38;;;;;;;4.38;0.82;;;;;;;;;;4990847;28;20037;-60
2021/05/26 03:19:04;;;;;;;3.30;0.95;;;;;;;;;;4990676;28;20072;-60
2021/05/26 03:21:30;;;;;;;5.75;0.90;;;;;;;;;;4990711;28;20026;-61
2021/05/26 03:23:56;;;;;;;3.15;0.70;;;;;;;;;;4989400;28;20453;-61
2021/05/26 03:26:22;;;;;;;2.88;0.80;;;;;;;;;;4990510;28;20433;-60
2021/05/26 03:28:48;;;;;;;7.00;1.00;;;;;;;;;;4990666;28;20105;-60
2021/05/26 03:31:14;;;;;;;2.00;0.75;;;;;;;;;;4990503;28;20021;-61
2021/05/26 03:33:40;;;;;;;2.67;0.80;;;;;;;;;;4990217;28;20022;-61
2021/05/26 03:36:08;;;;;;;3.10;0.98;;;;;;;;;;4990331;28;20257;-60
2021/05/26 03:38:34;;;;;;;3.90;0.77;;;;;;;;;;4990402;28;20035;-61
2021/05/26 03:41:00;;;;;;;3.42;0.85;;;;;;;;;;4989267;28;20027;-60
2021/05/26 03:43:26;;;;;;;4.85;1.15;;;;;;;;;;5003025;28;20025;-60
2021/05/26 03:45:52;;;;;;;3.03;0.90;;;;;;;;;;5009834;28;20022;-61
2021/05/26 03:48:18;;;;;;;3.03;0.70;;;;;;;;;;5009921;28;20078;-60
2021/05/26 03:50:44;;;;;;;3.20;0.90;;;;;;;;;;5009780;28;20067;-60
2021/05/26 03:53:10;;;;;;;5.68;1.05;;;;;;;;;;5010239;28;20030;-61
2021/05/26 03:55:36;;;;;;;3.80;1.00;;;;;;;;;;4992727;28;20163;-60
2021/05/26 03:58:03;;;;;;;4.40;1.15;;;;;;;;;;4990364;28;20495;-61
2021/05/26 04:00:29;;;;;;;9.07;1.27;;;;;;;;;;4990280;28;20031;-60
2021/05/26 04:02:55;;;;;;;2.90;0.82;;;;;;;;;;4990104;28;20033;-61
2021/05/26 04:05:21;;;;;;;1.92;0.80;;;;;;;;;;4989740;28;20022;-61
2021/05/26 04:07:48;;;;;;;2.60;0.90;;;;;;;;;;4989705;28;20065;-60
2021/05/26 04:10:14;;;;;;;3.85;1.00;;;;;;;;;;4989883;28;20076;-60
2021/05/26 04:12:40;;;;;;;3.70;1.00;;;;;;;;;;4990008;28;20033;-60
2021/05/26 04:15:06;;;;;;;3.72;0.93;;;;;;;;;;4989791;28;20479;-61
2021/05/26 04:17:32;;;;;;;2.88;0.75;;;;;;;;;;4989740;28;20106;-60
2021/05/26 04:20:04;;;;;;;2.75;1.00;;;;;;;;;;4989841;28;20088;-60
2021/05/26 04:22:34;;;;;;;2.40;1.00;;;;;;;;;;4990070;28;20022;-60
2021/05/26 04:25:00;;;;;;;3.67;0.80;;;;;;;;;;4989819;28;20181;-61
2021/05/26 04:27:26;;;;;;;2.00;0.70;;;;;;;;;;4989706;28;20030;-61
2021/05/26 04:29:52;;;;;;;2.25;0.90;;;;;;;;;;4989793;28;20022;-60
2021/05/26 04:32:19;;;;;;;4.50;1.30;;;;;;;;;;4988965;28;20110;-60
2021/05/26 04:34:45;;;;;;;3.13;0.80;;;;;;;;;;5021070;28;20113;-60
2021/05/26 04:37:11;;;;;;;3.45;1.00;;;;;;;;;;4989580;28;20097;-61
2021/05/26 04:39:37;;;;;;;2.70;1.05;;;;;;;;;;4989319;28;20047;-60
2021/05/26 04:42:03;;;;;;;3.05;1.10;;;;;;;;;;4991053;28;20030;-61
2021/05/26 04:44:29;;;;;;;3.65;1.00;;;;;;;;;;5009001;28;20017;-61
2021/05/26 04:46:55;;;;;;;4.32;1.00;;;;;;;;;;5040646;28;20540;-61
2021/05/26 04:49:21;;;;;;;4.50;1.42;;;;;;;;;;5009072;28;20022;-61
2021/05/26 04:51:47;;;;;;;2.22;0.90;;;;;;;;;;5008607;28;20364;-60
2021/05/26 04:54:13;;;;;;;3.47;1.20;;;;;;;;;;5009148;28;20022;-61
2021/05/26 04:56:39;;;;;;;2.30;0.90;;;;;;;;;;5008992;28;20093;-60
2021/05/26 04:59:05;;;;;;;4.18;1.05;;;;;;;;;;5008787;28;20028;-60
2021/05/26 05:01:31;;;;;;;2.22;0.80;;;;;;;;;;5008975;28;20477;-61
2021/05/26 05:03:57;;;;;;;2.63;0.88;;;;;;;;;;5008739;28;20508;-61
2021/05/26 05:06:23;;;;;;;3.58;1.17;;;;;;;;;;5008660;28;20506;-61
2021/05/26 05:08:49;;;;;;;9.10;4.43;;;;;;;;;;5008497;28;20599;-61
2021/05/26 05:11:16;;;;;;;10.07;4.10;;;;;;;;;;5008689;28;20727;-60
2021/05/26 05:13:42;;;;;;;11.70;5.47;;;;;;;;;;5008523;28;20030;-60
2021/05/26 05:16:08;;;;;;;12.93;4.72;;;;;;;;;;5008468;28;20026;-59
2021/05/26 05:18:34;;;;;;;18.17;4.90;;;;;;;;;;5039976;28;20083;-59
2021/05/26 05:21:00;;;;;;;15.15;5.18;;;;;;;;;;5008370;28;20417;-63
2021/05/26 05:23:26;;;;;;;11.88;4.35;;;;;;;;;;5008245;28;20030;-64
2021/05/26 05:25:52;;;;;;;7.43;4.07;;;;;;;;;;5008074;28;20022;-63
2021/05/26 05:28:18;;;;;;;9.23;4.65;;;;;;;;;;5008136;28;20034;-59
2021/05/26 05:30:44;;;;;;;17.75;4.95;;;;;;;;;;5007850;28;20020;-60
2021/05/26 05:33:10;;;;;;;12.23;4.00;;;;;;;;;;5008093;28;20044;-60
2021/05/26 05:35:36;;;;;;;12.93;4.28;;;;;;;;;;5007846;28;20499;-59
2021/05/26 05:38:02;;;;;;;8.73;4.10;;;;;;;;;;5008302;28;20057;-59
2021/05/26 05:40:28;;;;;;;10.85;4.15;;;;;;;;;;5008122;28;20502;-59
2021/05/26 05:42:54;;;;;;;10.10;3.60;;;;;;;;;;4999775;28;20019;-59
2021/05/26 05:45:20;;;;;;;9.77;3.95;;;;;;;;;;4988625;28;20554;-59
2021/05/26 05:47:47;;;;;;;7.47;3.17;;;;;;;;;;4988224;28;20125;-59
2021/05/26 05:50:16;;;;;;;10.98;4.00;;;;;;;;;;4988324;28;20034;-59
2021/05/26 05:52:43;;;;;;;10.25;3.42;;;;;;;;;;4988759;28;20022;-59
2021/05/26 05:55:10;;;;;;;7.10;3.10;;;;;;;;;;4988454;28;20054;-59
2021/05/26 05:57:37;;;;;;;10.50;3.47;;;;;;;;;;4988344;28;20440;-59
2021/05/26 06:00:04;;;;;;;17.10;3.72;;;;;;;;;;4988531;28;20019;-59
2021/05/26 06:02:30;;;;;;;9.32;3.60;;;;;;;;;;4988660;28;20031;-59
2021/05/26 06:04:56;;;;;;;5.63;2.75;;;;;;;;;;4990320;28;20029;-59
2021/05/26 06:07:22;;;;;;;9.73;3.08;;;;;;;;;;4991830;28;20065;-60
2021/05/26 06:09:48;;;;;;;9.60;2.85;;;;;;;;;;4990398;28;20026;-60
2021/05/26 06:12:14;;;;;;;7.30;2.80;;;;;;;;;;4991797;28;20425;-60
2021/05/26 06:14:40;;;;;;;7.80;2.78;;;;;;;;;;4991592;28;20050;-60
2021/05/26 06:17:06;;;;;;;6.78;2.40;;;;;;;;;;4991649;28;20509;-60
2021/05/26 06:19:32;;;;;;;6.43;2.35;;;;;;;;;;4991476;28;20054;-60
2021/05/26 06:21:58;;;;;;;5.47;2.30;;;;;;;;;;4991447;28;20045;-60
2021/05/26 06:24:24;;;;;;;6.47;2.70;;;;;;;;;;4991232;28;20019;-60
2021/05/26 06:26:50;;;;;;;11.35;3.30;;;;;;;;;;4991455;28;20030;-59
2021/05/26 06:29:16;;;;;;;6.47;2.47;;;;;;;;;;4991045;28;20029;-60
2021/05/26 06:31:43;;;;;;;6.43;2.60;;;;;;;;;;4991096;28;20038;-60
2021/05/26 06:34:09;;;;;;;5.57;2.20;;;;;;;;;;4991191;28;20022;-60
2021/05/26 06:36:36;;;;;;;5.88;2.53;;;;;;;;;;4991352;28;20018;-60
2021/05/26 06:39:02;;;;;;;6.30;2.00;;;;;;;;;;4991060;28;20534;-60
2021/05/26 06:41:29;;;;;;;6.78;2.53;;;;;;;;;;4991215;28;20083;-60
2021/05/26 06:43:55;;;;;;;11.88;2.47;;;;;;;;;;5007715;28;20039;-60
2021/05/26 06:46:21;;;;;;;5.10;2.15;;;;;;;;;;5010616;28;20556;-59
2021/05/26 06:48:47;;;;;;;6.10;2.33;;;;;;;;;;5010747;28;20038;-60
2021/05/26 06:51:13;;;;;;;5.43;2.00;;;;;;;;;;5010643;28;20018;-60
2021/05/26 06:53:40;;;;;;;8.20;2.08;;;;;;;;;;5014919;28;20126;-60
2021/05/26 06:56:06;;;;;;;6.30;2.25;;;;;;;;;;5009551;28;20018;-60
2021/05/26 06:58:32;;;;;;;6.65;2.45;;;;;;;;;;5009219;28;20057;-60
2021/05/26 07:00:58;;;;;;;5.10;2.00;;;;;;;;;;5014054;28;20030;-63
2021/05/26 07:03:24;;;;;;;9.02;2.22;;;;;;;;;;5007584;28;20038;-62
2021/05/26 07:05:50;;;;;;;10.27;2.20;;;;;;;;;;5008748;28;20030;-62
2021/05/26 07:08:16;;;;;;;9.90;2.28;;;;;;;;;;5008588;28;20045;-65
2021/05/26 07:10:42;;;;;;;10.98;2.30;;;;;;;;;;5008779;28;20101;-63
2021/05/26 07:13:08;;;;;;;6.72;2.35;;;;;;;;;;5008454;28;20034;-61
2021/05/26 07:15:34;;;;;;;6.90;2.10;;;;;;;;;;5008119;28;20022;-61
2021/05/26 07:18:04;;;;;;;7.93;2.17;;;;;;;;;;5008848;28;20026;-61
2021/05/26 07:20:31;;;;;;;5.68;1.88;;;;;;;;;;5007905;28;20033;-63
2021/05/26 07:22:57;;;;;;;7.22;2.45;;;;;;;;;;5009362;28;20604;-62
2021/05/26 07:25:23;;;;;;;5.75;1.88;;;;;;;;;;5009240;28;20026;-62
2021/05/26 07:27:50;;;;;;;9.40;2.20;;;;;;;;;;5009158;28;20081;-63
2021/05/26 07:30:16;;;;;;;8.90;2.00;;;;;;;;;;5008116;28;20030;-62
2021/05/26 07:32:42;;;;;;;7.03;1.98;;;;;;;;;;5009318;28;20022;-63
2021/05/26 07:35:08;;;;;;;6.22;2.00;;;;;;;;;;5009158;28;20083;-63
2021/05/26 07:37:35;;;;;;;6.72;1.88;;;;;;;;;;5009265;28;20101;-63
2021/05/26 07:40:01;;;;;;;4.70;1.73;;;;;;;;;;5009009;28;20046;-62
2021/05/26 07:42:27;;;;;;;5.18;1.65;;;;;;;;;;5007768;28;20022;-62
2021/05/26 07:44:53;;;;;;;6.15;1.80;;;;;;;;;;5009133;28;20086;-62
2021/05/26 07:47:19;;;;;;;6.55;1.70;;;;;;;;;;5009055;28;20028;-63
2021/05/26 07:49:45;;;;;;;7.60;1.88;;;;;;;;;;5008750;28;20033;-62
2021/05/26 07:52:13;;;;;;;8.38;1.70;;;;;;;;;;5009069;28;20068;-63
2021/05/26 07:54:40;;;;;;;6.15;1.65;;;;;;;;;;5000165;28;20474;-61
2021/05/26 07:57:06;;;;;;;5.63;1.70;;;;;;;;;;5005035;28;20030;-62
2021/05/26 07:59:32;;;;;;;5.75;1.52;;;;;;;;;;5022454;28;20021;-64
2021/05/26 08:01:59;;;;;;;5.25;1.55;;;;;;;;;;5028497;28;20025;-62
2021/05/26 08:04:25;;;;;;;7.07;1.70;;;;;;;;;;5028823;28;20026;-62
2021/05/26 08:06:51;;;;;;;6.70;1.42;;;;;;;;;;5028449;28;20121;-63
2021/05/26 08:09:17;;;;;;;7.13;1.70;;;;;;;;;;5028477;28;20163;-61
2021/05/26 08:11:43;;;;;;;3.75;1.38;;;;;;;;;;5028136;28;20021;-61
2021/05/26 08:14:09;;;;;;;3.55;1.27;;;;;;;;;;5027034;28;20029;-61
2021/05/26 08:16:35;;;;;;;4.45;1.38;;;;;;;;;;5027153;28;20025;-61
2021/05/26 08:19:01;;;;;;;7.18;1.70;;;;;;;;;;5027042;28;20026;-61
2021/05/26 08:21:27;;;;;;;5.03;1.20;;;;;;;;;;5028220;28;20075;-62
2021/05/26 08:23:53;;;;;;;3.97;1.40;;;;;;;;;;5028294;28;20022;-61
2021/05/26 08:26:22;;;;;;;4.18;1.40;;;;;;;;;;5027817;28;20105;-62
2021/05/26 08:28:49;;;;;;;3.72;1.20;;;;;;;;;;5028052;28;20025;-62
2021/05/26 08:31:16;;;;;;;3.45;1.13;;;;;;;;;;5027990;28;20018;-63
2021/05/26 08:33:42;;;;;;;3.22;1.20;;;;;;;;;;5027937;28;20529;-62
2021/05/26 08:36:11;;;;;;;2.55;1.00;;;;;;;;;;5027937;28;20024;-62
2021/05/26 08:38:38;;;;;;;4.88;1.10;;;;;;;;;;5027701;28;20051;-61
2021/05/26 08:41:08;;;;;;;2.60;1.02;;;;;;;;;;5027831;28;20090;-62
2021/05/26 08:43:35;;;;;;;5.15;1.60;;;;;;;;;;5013568;28;20082;-62
2021/05/26 08:46:03;;;;;;;3.50;1.20;;;;;;;;;;5008147;28;20025;-61
2021/05/26 08:48:30;;;;;;;3.15;1.10;;;;;;;;;;5008039;28;20026;-61
2021/05/26 08:50:56;;;;;;;2.90;1.10;;;;;;;;;;5008222;28;20026;-62
2021/05/26 08:53:23;;;;;;;3.05;1.00;;;;;;;;;;5008071;28;20440;-62
2021/05/26 08:55:49;;;;;;;4.72;1.00;;;;;;;;;;5007973;28;20044;-63
2021/05/26 08:58:15;;;;;;;2.55;0.90;;;;;;;;;;5040071;28;20382;-63
2021/05/26 09:00:41;;;;;;;3.40;1.10;;;;;;;;;;5008921;28;20026;-63
2021/05/26 09:03:07;;;;;;;3.28;1.05;;;;;;;;;;5027650;28;20125;-62
2021/05/26 09:05:34;;;;;;;2.55;0.77;;;;;;;;;;5027428;28;20030;-62
2021/05/26 09:08:09;;;;;;;1.88;0.85;;;;;;;;;;5027615;28;20077;-63
2021/05/26 09:10:45;;;;;;;2.92;1.02;;;;;;;;;;5027715;28;20170;-63
2021/05/26 09:13:26;;;;;;;2.03;0.80;;;;;;;;;;5027623;28;20025;-64
2021/05/26 09:15:52;;;;;;;3.60;0.98;;;;;;;;;;5027446;28;20018;-64
2021/05/26 09:18:18;;;;;;;2.60;1.00;;;;;;;;;;5005622;28;20497;-64
2021/05/26 09:20:45;;;;;;;2.03;0.80;;;;;;;;;;5007666;28;20596;-64
2021/05/26 09:23:19;;;;;;;2.53;0.82;;;;;;;;;;5007838;28;20030;-64
2021/05/26 09:25:48;;;;;;;2.80;1.05;;;;;;;;;;5007458;28;20032;-61
2021/05/26 09:28:25;;;;;;;4.88;1.02;;;;;;;;;;5007619;28;20038;-63
2021/05/26 09:30:54;;;;;;;4.78;0.90;;;;;;;;;;5007840;28;20057;-66
2021/05/26 09:33:23;;;;;;;4.88;1.00;;;;;;;;;;5007555;28;20033;-64
2021/05/26 09:36:10;;;;;;;4.32;0.98;;;;;;;;;;5007441;28;20026;-61
2021/05/26 09:38:49;;;;;;;4.70;0.90;;;;;;;;;;5008543;28;20069;-62
2021/05/26 09:41:25;;;;;;;5.55;0.65;;;;;;;;;;5010871;28;20057;-64
2021/05/26 09:43:52;;;;;;;5.70;0.90;;;;;;;;;;5010935;28;20474;-64
2021/05/26 09:46:21;;;;;;;1.67;0.60;;;;;;;;;;5010858;28;20052;-65
2021/05/26 09:49:06;;;;;;;3.72;0.93;;;;;;;;;;5011015;28;20055;-64
2021/05/26 09:51:34;;;;;;;3.30;0.55;;;;;;;;;;5010788;28;20500;-65
2021/05/26 09:54:19;;;;;;;1.98;0.70;;;;;;;;;;5010669;28;20033;-63
2021/05/26 09:56:48;;;;;;;4.28;1.08;;;;;;;;;;5010793;28;20022;-62
2021/05/26 09:59:14;;;;;;;3.78;0.85;;;;;;;;;;5010790;28;20466;-63
2021/05/26 10:01:41;;;;;;;2.97;0.80;;;;;;;;;;5015929;28;20045;-63
2021/05/26 10:04:07;;;;;;;1.90;0.80;;;;;;;;;;5010677;28;20033;-63
2021/05/26 10:06:34;;;;;;;6.75;2.15;;;;;;;;;;5010511;28;20053;-63
2021/05/26 10:09:00;;;;;;;35.25;13.90;;;;;;;;;;5009553;28;20372;-63
2021/05/26 10:11:28;;;;;;;158.73;58.05;;;;;;;;;;5010256;28;20026;-63
2021/05/26 10:13:55;;;;;;;236.68;83.10;;;;;;;;;;5010258;28;20026;-63
2021/05/26 10:16:22;;;;;;;337.48;109.85;;;;;;;;;;5010459;28;20026;-64
2021/05/26 10:18:48;;;;;;;265.20;89.82;;;;;;;;;;5010516;28;20029;-62
2021/05/26 10:21:15;;;;;;;229.65;79.72;;;;;;;;;;5010608;28;20026;-62
2021/05/26 10:23:42;;;;;;;212.68;74.50;;;;;;;;;;5009856;28;20022;-62
2021/05/26 10:26:08;;;;;;;202.85;72.03;;;;;;;;;;5009846;28;20030;-61
2021/05/26 10:28:34;;;;;;;204.13;69.53;;;;;;;;;;5012464;28;20030;-61
2021/05/26 10:31:02;;;;;;;202.48;68.93;;;;;;;;;;5014724;28;20022;-61
2021/05/26 10:33:50;;;;;;;192.35;66.68;;;;;;;;;;5008475;28;20038;-63
2021/05/26 10:36:16;;;;;;;178.63;63.33;;;;;;;;;;5010321;28;20482;-62
2021/05/26 10:38:55;;;;;;;164.20;59.05;;;;;;;;;;5010244;28;20448;-62
2021/05/26 10:41:21;;;;;;;201.60;77.53;;;;;;;;;;5010405;28;20019;-65
2021/05/26 10:43:52;;;;;;;217.00;89.43;;;;;;;;;;5010717;28;20057;-64
2021/05/26 10:46:37;;;;;;;168.85;72.38;;;;;;;;;;5010617;28;20029;-63
2021/05/26 10:49:04;;;;;;;139.98;57.60;;;;;;;;;;5010114;28;20025;-63
2021/05/26 10:51:49;;;;;;;150.60;63.08;;;;;;;;;;5009126;28;20444;-62
2021/05/26 10:54:33;;;;;;;140.35;54.90;;;;;;;;;;5009756;28;20638;-63
2021/05/26 10:56:59;;;;;;;123.13;45.25;;;;;;;;;;5009786;28;20095;-63
2021/05/26 10:59:25;;;;;;;118.15;48.47;;;;;;;;;;5010057;28;20097;-63
2021/05/26 11:02:04;;;;;;;103.53;41.50;;;;;;;;;;5010353;28;20029;-62
2021/05/26 11:04:30;;;;;;;106.05;41.67;;;;;;;;;;5008571;28;20468;-62
2021/05/26 11:07:15;;;;;;;95.00;39.33;;;;;;;;;;5015481;28;20033;-62
2021/05/26 11:09:54;;;;;;;88.00;33.45;;;;;;;;;;5030302;28;20413;-60
2021/05/26 11:12:20;;;;;;;72.68;29.48;;;;;;;;;;5030551;28;20041;-62
2021/05/26 11:14:48;;;;;;;78.95;33.05;;;;;;;;;;5026688;28;20018;-62
2021/05/26 11:17:19;;;;;;;72.32;27.02;;;;;;;;;;5013191;28;20037;-63
2021/05/26 11:19:46;;;;;;;60.08;23.63;;;;;;;;;;5010539;28;20034;-62
2021/05/26 11:22:16;;;;;;;60.75;25.02;;;;;;;;;;5010009;28;20050;-62
2021/05/26 11:24:49;;;;;;;49.85;20.70;;;;;;;;;;5009841;28;20105;-62
2021/05/26 11:27:19;;;;;;;50.78;20.92;;;;;;;;;;5010151;28;20416;-61
2021/05/26 11:29:48;;;;;;;39.58;16.25;;;;;;;;;;5010239;28;20500;-62
2021/05/26 11:32:22;;;;;;;39.83;17.15;;;;;;;;;;5010138;28;20079;-62
2021/05/26 11:34:49;;;;;;;36.40;14.10;;;;;;;;;;5010694;28;20022;-62
2021/05/26 11:37:28;;;;;;;35.45;14.48;;;;;;;;;;5010587;28;20103;-60
2021/05/26 11:39:54;;;;;;;33.40;13.60;;;;;;;;;;5009891;28;20126;-62
2021/05/26 11:42:22;;;;;;;27.45;11.45;;;;;;;;;;5009892;28;20018;-62
2021/05/26 11:45:00;;;;;;;32.97;12.60;;;;;;;;;;5015222;28;20022;-62
2021/05/26 11:47:30;;;;;;;23.40;9.98;;;;;;;;;;5018961;28;20113;-62
2021/05/26 11:49:59;;;;;;;22.20;8.90;;;;;;;;;;5029541;28;20155;-62
2021/05/26 11:52:25;;;;;;;22.50;9.15;;;;;;;;;;5028138;28;20037;-62
2021/05/26 11:54:55;;;;;;;16.95;7.90;;;;;;;;;;5013879;28;20028;-61
2021/05/26 11:57:21;;;;;;;18.48;8.07;;;;;;;;;;5027074;28;20037;-60
2021/05/26 11:59:51;;;;;;;20.33;8.43;;;;;;;;;;5022741;28;20030;-62
2021/05/26 12:02:17;;;;;;;17.40;7.78;;;;;;;;;;5016607;28;20026;-61
2021/05/26 12:04:43;;;;;;;18.88;6.93;;;;;;;;;;5023730;28;20060;-63
2021/05/26 12:07:09;;;;;;;18.40;6.60;;;;;;;;;;5028693;28;20037;-63
2021/05/26 12:09:35;;;;;;;16.35;5.72;;;;;;;;;;5025258;28;20065;-63
2021/05/26 12:12:14;;;;;;;15.52;5.63;;;;;;;;;;5018915;28;20030;-63
2021/05/26 12:14:41;;;;;;;10.00;4.18;;;;;;;;;;5005748;28;20025;-63
2021/05/26 12:17:07;;;;;;;14.77;4.70;;;;;;;;;;5020640;28;20040;-61
2021/05/26 12:19:34;;;;;;;13.63;5.00;;;;;;;;;;5015592;28;20533;-61
2021/05/26 12:22:19;;;;;;;11.63;4.15;;;;;;;;;;5009672;28;20071;-63
2021/05/26 12:25:00;;;;;;;12.25;4.05;;;;;;;;;;5009592;28;20432;-62
2021/05/26 12:27:43;;;;;;;11.05;3.80;;;;;;;;;;5008214;28;20030;-62
2021/05/26 12:30:19;;;;;;;8.68;3.33;;;;;;;;;;5009192;28;20636;-62
2021/05/26 12:32:46;;;;;;;8.25;2.92;;;;;;;;;;5016198;28;20158;-62
2021/05/26 12:35:27;;;;;;;9.60;2.60;;;;;;;;;;5181998;27;20121;-63
2021/05/26 12:37:55;;;;;;;8.02;2.92;;;;;;;;;;5159380;27;20026;-63
2021/05/26 12:40:27;;;;;;;9.70;3.40;;;;;;;;;;5157639;27;20011;-63
2021/05/26 12:42:54;;;;;;;10.75;3.05;;;;;;;;;;5164944;27;20026;-61
2021/05/26 12:45:26;;;;;;;10.45;2.72;;;;;;;;;;5167479;27;20407;-62
2021/05/26 12:47:52;;;;;;;7.15;2.70;;;;;;;;;;5158138;27;20023;-64
2021/05/26 12:50:22;;;;;;;10.98;2.92;;;;;;;;;;5161332;27;20026;-62
2021/05/26 12:52:54;;;;;;;11.40;2.55;;;;;;;;;;5167548;27;20022;-62
2021/05/26 12:55:24;;;;;;;6.07;2.00;;;;;;;;;;5149877;27;20038;-62
2021/05/26 12:57:51;;;;;;;6.95;2.13;;;;;;;;;;5149762;27;20094;-62
2021/05/26 13:00:22;;;;;;;7.85;2.33;;;;;;;;;;5158627;27;20019;-62
2021/05/26 13:02:49;;;;;;;5.65;2.17;;;;;;;;;;5165197;27;20021;-63
2021/05/26 13:05:16;;;;;;;5.68;1.73;;;;;;;;;;5170546;27;20018;-66
2021/05/26 13:07:44;;;;;;;4.68;1.38;;;;;;;;;;5170388;27;20027;-63
2021/05/26 13:10:29;;;;;;;6.78;2.33;;;;;;;;;;5170200;27;20414;-62
2021/05/26 13:12:56;;;;;;;7.32;2.00;;;;;;;;;;5170673;27;20050;-62
2021/05/26 13:15:23;;;;;;;6.40;1.85;;;;;;;;;;5170988;27;20025;-62
2021/05/26 13:17:50;;;;;;;3.80;1.33;;;;;;;;;;5170539;27;20019;-62
2021/05/26 13:20:18;;;;;;;5.05;1.75;;;;;;;;;;5170916;27;20019;-61
2021/05/26 13:22:44;;;;;;;3.75;1.60;;;;;;;;;;5170488;27;20362;-62
2021/05/26 13:25:10;;;;;;;6.38;1.45;;;;;;;;;;5170517;27;20372;-61
2021/05/26 13:27:40;;;;;;;6.47;1.42;;;;;;;;;;5170640;27;20054;-62
2021/05/26 13:30:06;;;;;;;3.33;1.05;;;;;;;;;;5148243;27;20038;-62
2021/05/26 13:32:32;;;;;;;2.55;1.00;;;;;;;;;;5145196;27;20027;-62
2021/05/26 13:34:59;;;;;;;6.15;1.80;;;;;;;;;;5166981;27;20046;-63
2021/05/26 13:37:25;;;;;;;4.65;1.30;;;;;;;;;;5170721;27;20023;-62
2021/05/26 13:39:51;;;;;;;6.63;1.58;;;;;;;;;;5170567;27;20050;-62
2021/05/26 13:42:17;;;;;;;3.40;1.20;;;;;;;;;;5170268;27;20048;-62
2021/05/26 13:44:43;;;;;;;4.53;1.00;;;;;;;;;;5167954;27;20019;-62
2021/05/26 13:47:09;;;;;;;5.20;1.52;;;;;;;;;;5156347;27;20031;-62
2021/05/26 13:49:35;;;;;;;4.30;1.50;;;;;;;;;;5155904;27;20020;-62
2021/05/26 13:52:02;;;;;;;2.95;1.13;;;;;;;;;;5156100;27;20019;-61
2021/05/26 13:54:28;;;;;;;4.28;1.30;;;;;;;;;;5155923;27;20102;-62
2021/05/26 13:56:54;;;;;;;2.47;0.95;;;;;;;;;;5155570;27;20106;-62
2021/05/26 13:59:20;;;;;;;3.90;1.45;;;;;;;;;;5149046;27;20027;-63
2021/05/26 14:01:46;;;;;;;3.90;1.00;;;;;;;;;;5155361;27;20021;-63
2021/05/26 14:04:12;;;;;;;5.00;0.98;;;;;;;;;;5155417;27;20060;-62
2021/05/26 14:06:40;;;;;;;3.10;1.00;;;;;;;;;;5155624;27;20102;-61
2021/05/26 14:09:06;;;;;;;5.57;1.10;;;;;;;;;;5155421;27;20105;-61
2021/05/26 14:11:33;;;;;;;4.68;1.30;;;;;;;;;;5155428;27;20090;-62
2021/05/26 14:13:59;;;;;;;3.58;1.08;;;;;;;;;;5136952;27;20117;-61
2021/05/26 14:16:25;;;;;;;2.83;1.00;;;;;;;;;;5155611;27;20044;-62
2021/05/26 14:18:51;;;;;;;3.80;0.90;;;;;;;;;;5155421;27;20594;-62
2021/05/26 14:21:17;;;;;;;3.78;1.00;;;;;;;;;;5155211;27;20022;-62
2021/05/26 14:23:43;;;;;;;3.00;0.80;;;;;;;;;;5136460;27;20045;-62
2021/05/26 14:26:09;;;;;;;3.25;1.00;;;;;;;;;;5155155;27;20026;-62
2021/05/26 14:28:35;;;;;;;3.72;0.82;;;;;;;;;;5155171;27;20019;-62
2021/05/26 14:31:01;;;;;;;3.60;0.82;;;;;;;;;;5155339;27;20377;-62
2021/05/26 14:33:28;;;;;;;2.58;0.93;;;;;;;;;;5155043;27;20065;-61
2021/05/26 14:35:56;;;;;;;3.63;1.02;;;;;;;;;;5155117;27;20023;-61
2021/05/26 14:38:43;;;;;;;3.13;1.10;;;;;;;;;;5155227;27;20106;-61
2021/05/26 14:41:10;;;;;;;2.33;0.68;;;;;;;;;;5155382;27;20060;-61
2021/05/26 14:43:37;;;;;;;4.50;1.10;;;;;;;;;;5154886;27;20018;-62